sensor_id;sensor_type;location;lat;lon;timestamp;P1;durP1;ratioP1;P2;durP2;ratioP2
54875;SDS011;40764;48.472;8.166;2022-08-01T00:04:06;5.88;;;2.53;;
54875;SDS011;40764;48.472;8.166;2022-08-01T00:10:08;6.05;;;2.53;;
54875;SDS011;40764;48.472;8.166;2022-08-01T00:16:13;5.88;;;2.78;;
54875;SDS011;40764;48.472;8.166;2022-08-01T00:22:13;5.93;;;2.70;;
54875;SDS011;40764;48.472;8.166;2022-08-01T00:28:13;3.25;;;2.63;;
54875;SDS011;40764;48.472;8.166;2022-08-01T00:34:14;3.53;;;2.63;;
54875;SDS011;40764;48.472;8.166;2022-08-01T00:40:14;8.50;;;3.30;;
54875;SDS011;40764;48.472;8.166;2022-08-01T00:46:15;3.73;;;2.70;;
54875;SDS011;40764;48.472;8.166;2022-08-01T00:52:15;6.23;;;3.13;;
54875;SDS011;40764;48.472;8.166;2022-08-01T00:58:16;4.87;;;3.20;;
54875;SDS011;40764;48.472;8.166;2022-08-01T01:04:17;5.37;;;3.27;;
54875;SDS011;40764;48.472;8.166;2022-08-01T01:16:24;4.25;;;3.13;;
54875;SDS011;40764;48.472;8.166;2022-08-01T01:35:06;9.57;;;3.50;;
54875;SDS011;40764;48.472;8.166;2022-08-01T01:41:11;5.20;;;3.60;;
54875;SDS011;40764;48.472;8.166;2022-08-01T01:47:12;5.00;;;3.28;;
54875;SDS011;40764;48.472;8.166;2022-08-01T01:53:15;6.22;;;3.55;;
54875;SDS011;40764;48.472;8.166;2022-08-01T01:59:19;3.95;;;3.05;;
54875;SDS011;40764;48.472;8.166;2022-08-01T02:05:21;5.18;;;3.50;;
54875;SDS011;40764;48.472;8.166;2022-08-01T02:11:22;5.28;;;3.83;;
54875;SDS011;40764;48.472;8.166;2022-08-01T02:17:23;4.00;;;3.03;;
54875;SDS011;40764;48.472;8.166;2022-08-01T02:23:24;10.02;;;3.85;;
54875;SDS011;40764;48.472;8.166;2022-08-01T02:29:39;4.78;;;3.67;;
54875;SDS011;40764;48.472;8.166;2022-08-01T02:35:43;5.67;;;3.50;;
54875;SDS011;40764;48.472;8.166;2022-08-01T02:41:48;6.63;;;4.07;;
54875;SDS011;40764;48.472;8.166;2022-08-01T02:47:55;5.70;;;3.85;;
54875;SDS011;40764;48.472;8.166;2022-08-01T02:53:59;5.88;;;3.95;;
54875;SDS011;40764;48.472;8.166;2022-08-01T03:00:06;6.72;;;4.30;;
54875;SDS011;40764;48.472;8.166;2022-08-01T03:06:07;5.30;;;4.17;;
54875;SDS011;40764;48.472;8.166;2022-08-01T03:12:14;5.10;;;4.20;;
54875;SDS011;40764;48.472;8.166;2022-08-01T03:24:26;7.32;;;4.20;;
54875;SDS011;40764;48.472;8.166;2022-08-01T03:30:27;8.32;;;4.70;;
54875;SDS011;40764;48.472;8.166;2022-08-01T03:43:32;5.15;;;4.03;;
54875;SDS011;40764;48.472;8.166;2022-08-01T03:49:41;6.70;;;4.65;;
54875;SDS011;40764;48.472;8.166;2022-08-01T03:55:44;9.20;;;4.30;;
54875;SDS011;40764;48.472;8.166;2022-08-01T04:01:45;8.07;;;5.87;;
54875;SDS011;40764;48.472;8.166;2022-08-01T04:07:49;14.50;;;5.60;;
54875;SDS011;40764;48.472;8.166;2022-08-01T04:13:55;15.60;;;6.93;;
54875;SDS011;40764;48.472;8.166;2022-08-01T04:20:02;13.30;;;6.00;;
54875;SDS011;40764;48.472;8.166;2022-08-01T04:33:28;8.68;;;6.13;;
54875;SDS011;40764;48.472;8.166;2022-08-01T04:40:25;11.05;;;5.95;;
54875;SDS011;40764;48.472;8.166;2022-08-01T04:46:51;12.63;;;6.18;;
54875;SDS011;40764;48.472;8.166;2022-08-01T04:52:57;8.90;;;5.95;;
54875;SDS011;40764;48.472;8.166;2022-08-01T04:59:21;8.32;;;6.07;;
54875;SDS011;40764;48.472;8.166;2022-08-01T05:05:56;10.52;;;6.32;;
54875;SDS011;40764;48.472;8.166;2022-08-01T05:12:12;12.13;;;6.35;;
54875;SDS011;40764;48.472;8.166;2022-08-01T05:24:23;12.10;;;6.07;;
54875;SDS011;40764;48.472;8.166;2022-08-01T05:30:23;8.77;;;6.13;;
54875;SDS011;40764;48.472;8.166;2022-08-01T05:36:23;12.77;;;5.45;;
54875;SDS011;40764;48.472;8.166;2022-08-01T05:42:24;7.43;;;5.35;;
54875;SDS011;40764;48.472;8.166;2022-08-01T05:48:24;13.15;;;5.45;;
54875;SDS011;40764;48.472;8.166;2022-08-01T05:54:25;8.48;;;4.65;;
54875;SDS011;40764;48.472;8.166;2022-08-01T06:00:25;7.47;;;5.75;;
54875;SDS011;40764;48.472;8.166;2022-08-01T06:06:25;5.80;;;4.50;;
54875;SDS011;40764;48.472;8.166;2022-08-01T06:12:26;6.43;;;4.57;;
54875;SDS011;40764;48.472;8.166;2022-08-01T06:18:26;6.70;;;4.68;;
54875;SDS011;40764;48.472;8.166;2022-08-01T06:24:27;6.32;;;4.70;;
54875;SDS011;40764;48.472;8.166;2022-08-01T06:30:27;8.83;;;4.90;;
54875;SDS011;40764;48.472;8.166;2022-08-01T06:36:28;7.00;;;5.57;;
54875;SDS011;40764;48.472;8.166;2022-08-01T06:42:28;6.80;;;4.07;;
54875;SDS011;40764;48.472;8.166;2022-08-01T06:48:31;6.93;;;5.30;;
54875;SDS011;40764;48.472;8.166;2022-08-01T06:54:31;7.43;;;4.05;;
54875;SDS011;40764;48.472;8.166;2022-08-01T07:00:32;10.15;;;4.68;;
54875;SDS011;40764;48.472;8.166;2022-08-01T07:06:32;8.30;;;4.00;;
54875;SDS011;40764;48.472;8.166;2022-08-01T07:12:32;8.20;;;4.13;;
54875;SDS011;40764;48.472;8.166;2022-08-01T07:18:33;8.20;;;4.23;;
54875;SDS011;40764;48.472;8.166;2022-08-01T07:24:33;4.28;;;2.70;;
54875;SDS011;40764;48.472;8.166;2022-08-01T07:30:34;7.43;;;3.33;;
54875;SDS011;40764;48.472;8.166;2022-08-01T07:36:34;6.50;;;3.03;;
54875;SDS011;40764;48.472;8.166;2022-08-01T07:42:35;4.53;;;2.78;;
54875;SDS011;40764;48.472;8.166;2022-08-01T07:48:35;7.60;;;3.50;;
54875;SDS011;40764;48.472;8.166;2022-08-01T07:54:36;6.97;;;3.37;;
54875;SDS011;40764;48.472;8.166;2022-08-01T08:00:36;6.77;;;3.50;;
54875;SDS011;40764;48.472;8.166;2022-08-01T08:06:37;5.60;;;3.10;;
54875;SDS011;40764;48.472;8.166;2022-08-01T08:12:38;8.98;;;3.33;;
54875;SDS011;40764;48.472;8.166;2022-08-01T08:18:38;6.43;;;2.90;;
54875;SDS011;40764;48.472;8.166;2022-08-01T08:24:38;6.77;;;3.67;;
54875;SDS011;40764;48.472;8.166;2022-08-01T08:30:39;5.23;;;3.30;;
54875;SDS011;40764;48.472;8.166;2022-08-01T08:36:39;9.18;;;3.40;;
54875;SDS011;40764;48.472;8.166;2022-08-01T08:42:40;8.13;;;4.30;;
54875;SDS011;40764;48.472;8.166;2022-08-01T08:48:41;6.38;;;3.95;;
54875;SDS011;40764;48.472;8.166;2022-08-01T08:54:42;5.10;;;3.53;;
54875;SDS011;40764;48.472;8.166;2022-08-01T09:00:43;5.53;;;3.38;;
54875;SDS011;40764;48.472;8.166;2022-08-01T09:06:44;5.37;;;3.10;;
54875;SDS011;40764;48.472;8.166;2022-08-01T09:13:03;5.95;;;3.10;;
54875;SDS011;40764;48.472;8.166;2022-08-01T09:19:14;4.82;;;4.13;;
54875;SDS011;40764;48.472;8.166;2022-08-01T09:25:16;5.18;;;3.60;;
54875;SDS011;40764;48.472;8.166;2022-08-01T09:31:17;11.67;;;4.20;;
54875;SDS011;40764;48.472;8.166;2022-08-01T09:37:18;8.18;;;3.85;;
54875;SDS011;40764;48.472;8.166;2022-08-01T09:43:30;7.20;;;4.18;;
54875;SDS011;40764;48.472;8.166;2022-08-01T09:49:32;5.10;;;4.00;;
54875;SDS011;40764;48.472;8.166;2022-08-01T09:55:34;6.22;;;3.67;;
54875;SDS011;40764;48.472;8.166;2022-08-01T10:01:41;6.13;;;4.37;;
54875;SDS011;40764;48.472;8.166;2022-08-01T10:07:57;7.25;;;4.82;;
54875;SDS011;40764;48.472;8.166;2022-08-01T10:13:58;5.65;;;3.92;;
54875;SDS011;40764;48.472;8.166;2022-08-01T10:19:59;9.60;;;4.83;;
54875;SDS011;40764;48.472;8.166;2022-08-01T10:26:02;6.75;;;4.38;;
54875;SDS011;40764;48.472;8.166;2022-08-01T10:32:05;4.47;;;3.72;;
54875;SDS011;40764;48.472;8.166;2022-08-01T10:38:06;8.63;;;3.72;;
54875;SDS011;40764;48.472;8.166;2022-08-01T10:44:07;5.93;;;4.15;;
54875;SDS011;40764;48.472;8.166;2022-08-01T10:56:16;7.78;;;3.72;;
54875;SDS011;40764;48.472;8.166;2022-08-01T11:02:27;12.73;;;4.30;;
54875;SDS011;40764;48.472;8.166;2022-08-01T11:08:28;9.10;;;4.03;;
54875;SDS011;40764;48.472;8.166;2022-08-01T11:14:31;5.03;;;3.70;;
54875;SDS011;40764;48.472;8.166;2022-08-01T11:20:35;4.28;;;3.58;;
54875;SDS011;40764;48.472;8.166;2022-08-01T11:26:36;4.45;;;3.75;;
54875;SDS011;40764;48.472;8.166;2022-08-01T11:32:46;4.30;;;3.45;;
54875;SDS011;40764;48.472;8.166;2022-08-01T11:44:56;8.48;;;4.90;;
54875;SDS011;40764;48.472;8.166;2022-08-01T11:50:57;12.77;;;4.68;;
54875;SDS011;40764;48.472;8.166;2022-08-01T11:56:59;3.67;;;2.97;;
54875;SDS011;40764;48.472;8.166;2022-08-01T12:03:02;7.93;;;3.92;;
54875;SDS011;40764;48.472;8.166;2022-08-01T12:15:17;3.53;;;2.83;;
54875;SDS011;40764;48.472;8.166;2022-08-01T12:21:19;5.78;;;3.17;;
54875;SDS011;40764;48.472;8.166;2022-08-01T12:27:26;3.87;;;2.57;;
54875;SDS011;40764;48.472;8.166;2022-08-01T12:33:28;5.68;;;3.70;;
54875;SDS011;40764;48.472;8.166;2022-08-01T12:39:32;7.03;;;3.67;;
54875;SDS011;40764;48.472;8.166;2022-08-01T12:45:37;4.15;;;3.45;;
54875;SDS011;40764;48.472;8.166;2022-08-01T12:51:42;9.02;;;3.85;;
54875;SDS011;40764;48.472;8.166;2022-08-01T13:04:00;8.20;;;3.65;;
54875;SDS011;40764;48.472;8.166;2022-08-01T13:10:04;8.73;;;3.65;;
54875;SDS011;40764;48.472;8.166;2022-08-01T13:16:05;7.38;;;3.65;;
54875;SDS011;40764;48.472;8.166;2022-08-01T13:22:07;7.80;;;3.60;;
54875;SDS011;40764;48.472;8.166;2022-08-01T13:28:14;3.43;;;3.03;;
54875;SDS011;40764;48.472;8.166;2022-08-01T13:34:16;7.00;;;3.60;;
54875;SDS011;40764;48.472;8.166;2022-08-01T13:46:24;4.38;;;3.20;;
54875;SDS011;40764;48.472;8.166;2022-08-01T13:58:24;5.43;;;3.38;;
54875;SDS011;40764;48.472;8.166;2022-08-01T14:10:25;9.70;;;3.70;;
54875;SDS011;40764;48.472;8.166;2022-08-01T14:16:26;6.03;;;3.47;;
54875;SDS011;40764;48.472;8.166;2022-08-01T14:22:26;6.17;;;3.17;;
54875;SDS011;40764;48.472;8.166;2022-08-01T14:28:26;3.22;;;2.92;;
54875;SDS011;40764;48.472;8.166;2022-08-01T14:34:28;3.75;;;2.95;;
54875;SDS011;40764;48.472;8.166;2022-08-01T14:40:29;6.90;;;2.83;;
54875;SDS011;40764;48.472;8.166;2022-08-01T14:46:29;4.82;;;2.92;;
54875;SDS011;40764;48.472;8.166;2022-08-01T14:52:30;3.58;;;2.53;;
54875;SDS011;40764;48.472;8.166;2022-08-01T14:58:30;3.85;;;2.60;;
54875;SDS011;40764;48.472;8.166;2022-08-01T15:04:30;3.80;;;2.20;;
54875;SDS011;40764;48.472;8.166;2022-08-01T15:10:31;5.85;;;2.35;;
54875;SDS011;40764;48.472;8.166;2022-08-01T15:16:32;3.70;;;2.33;;
54875;SDS011;40764;48.472;8.166;2022-08-01T15:22:32;3.35;;;2.00;;
54875;SDS011;40764;48.472;8.166;2022-08-01T15:28:34;13.10;;;2.20;;
54875;SDS011;40764;48.472;8.166;2022-08-01T15:34:35;8.13;;;2.30;;
54875;SDS011;40764;48.472;8.166;2022-08-01T15:40:36;5.18;;;2.65;;
54875;SDS011;40764;48.472;8.166;2022-08-01T15:46:36;6.40;;;2.83;;
54875;SDS011;40764;48.472;8.166;2022-08-01T15:52:37;2.97;;;2.57;;
54875;SDS011;40764;48.472;8.166;2022-08-01T15:58:37;3.73;;;2.40;;
54875;SDS011;40764;48.472;8.166;2022-08-01T16:04:37;4.13;;;2.50;;
54875;SDS011;40764;48.472;8.166;2022-08-01T16:10:38;3.75;;;2.38;;
54875;SDS011;40764;48.472;8.166;2022-08-01T16:16:38;4.03;;;2.63;;
54875;SDS011;40764;48.472;8.166;2022-08-01T16:22:39;3.23;;;2.70;;
54875;SDS011;40764;48.472;8.166;2022-08-01T16:28:39;4.40;;;2.75;;
54875;SDS011;40764;48.472;8.166;2022-08-01T16:34:40;9.13;;;3.07;;
54875;SDS011;40764;48.472;8.166;2022-08-01T16:40:40;4.82;;;3.53;;
54875;SDS011;40764;48.472;8.166;2022-08-01T16:46:41;3.50;;;3.03;;
54875;SDS011;40764;48.472;8.166;2022-08-01T16:52:41;5.13;;;2.73;;
54875;SDS011;40764;48.472;8.166;2022-08-01T16:58:41;4.13;;;2.53;;
54875;SDS011;40764;48.472;8.166;2022-08-01T17:04:42;5.73;;;2.70;;
54875;SDS011;40764;48.472;8.166;2022-08-01T17:10:42;10.23;;;4.90;;
54875;SDS011;40764;48.472;8.166;2022-08-01T17:16:43;5.77;;;3.07;;
54875;SDS011;40764;48.472;8.166;2022-08-01T17:22:44;8.05;;;3.03;;
54875;SDS011;40764;48.472;8.166;2022-08-01T17:28:44;6.43;;;2.63;;
54875;SDS011;40764;48.472;8.166;2022-08-01T17:34:45;6.97;;;2.67;;
54875;SDS011;40764;48.472;8.166;2022-08-01T17:40:45;2.80;;;1.97;;
54875;SDS011;40764;48.472;8.166;2022-08-01T17:46:45;11.87;;;2.33;;
54875;SDS011;40764;48.472;8.166;2022-08-01T17:52:46;4.90;;;2.67;;
54875;SDS011;40764;48.472;8.166;2022-08-01T17:58:46;4.63;;;2.00;;
54875;SDS011;40764;48.472;8.166;2022-08-01T18:04:47;2.83;;;1.70;;
54875;SDS011;40764;48.472;8.166;2022-08-01T18:10:48;3.67;;;1.60;;
54875;SDS011;40764;48.472;8.166;2022-08-01T18:16:48;2.03;;;1.70;;
54875;SDS011;40764;48.472;8.166;2022-08-01T18:22:49;7.33;;;2.97;;
54875;SDS011;40764;48.472;8.166;2022-08-01T18:28:49;11.40;;;2.03;;
54875;SDS011;40764;48.472;8.166;2022-08-01T18:34:49;3.07;;;2.23;;
54875;SDS011;40764;48.472;8.166;2022-08-01T18:40:50;5.43;;;2.90;;
54875;SDS011;40764;48.472;8.166;2022-08-01T18:46:51;9.05;;;2.67;;
54875;SDS011;40764;48.472;8.166;2022-08-01T18:52:53;5.68;;;2.70;;
54875;SDS011;40764;48.472;8.166;2022-08-01T18:58:54;9.67;;;2.50;;
54875;SDS011;40764;48.472;8.166;2022-08-01T19:04:54;6.67;;;3.50;;
54875;SDS011;40764;48.472;8.166;2022-08-01T19:10:55;6.30;;;2.80;;
54875;SDS011;40764;48.472;8.166;2022-08-01T19:16:55;5.60;;;2.10;;
54875;SDS011;40764;48.472;8.166;2022-08-01T19:22:55;1.90;;;1.73;;
54875;SDS011;40764;48.472;8.166;2022-08-01T19:28:57;6.13;;;2.43;;
54875;SDS011;40764;48.472;8.166;2022-08-01T19:35:04;3.50;;;1.85;;
54875;SDS011;40764;48.472;8.166;2022-08-01T19:41:07;2.75;;;2.13;;
54875;SDS011;40764;48.472;8.166;2022-08-01T19:47:07;3.60;;;2.10;;
54875;SDS011;40764;48.472;8.166;2022-08-01T19:53:08;3.87;;;2.30;;
54875;SDS011;40764;48.472;8.166;2022-08-01T20:05:18;5.72;;;2.47;;
54875;SDS011;40764;48.472;8.166;2022-08-01T20:11:18;3.50;;;2.40;;
54875;SDS011;40764;48.472;8.166;2022-08-01T20:17:22;6.00;;;2.72;;
54875;SDS011;40764;48.472;8.166;2022-08-01T20:23:23;6.83;;;2.80;;
54875;SDS011;40764;48.472;8.166;2022-08-01T20:29:27;4.95;;;2.63;;
54875;SDS011;40764;48.472;8.166;2022-08-01T20:35:28;4.60;;;2.72;;
54875;SDS011;40764;48.472;8.166;2022-08-01T20:41:30;3.00;;;2.70;;
54875;SDS011;40764;48.472;8.166;2022-08-01T20:47:30;7.20;;;2.17;;
54875;SDS011;40764;48.472;8.166;2022-08-01T20:53:35;5.57;;;2.60;;
54875;SDS011;40764;48.472;8.166;2022-08-01T20:59:46;6.90;;;2.75;;
54875;SDS011;40764;48.472;8.166;2022-08-01T21:05:51;3.80;;;2.30;;
54875;SDS011;40764;48.472;8.166;2022-08-01T21:12:02;6.00;;;2.13;;
54875;SDS011;40764;48.472;8.166;2022-08-01T21:18:14;4.32;;;2.80;;
54875;SDS011;40764;48.472;8.166;2022-08-01T21:24:18;3.75;;;3.05;;
54875;SDS011;40764;48.472;8.166;2022-08-01T21:30:22;5.15;;;2.40;;
54875;SDS011;40764;48.472;8.166;2022-08-01T21:36:24;7.40;;;2.80;;
54875;SDS011;40764;48.472;8.166;2022-08-01T21:42:26;4.28;;;2.72;;
54875;SDS011;40764;48.472;8.166;2022-08-01T21:48:27;5.72;;;3.08;;
54875;SDS011;40764;48.472;8.166;2022-08-01T21:54:41;4.45;;;2.92;;
54875;SDS011;40764;48.472;8.166;2022-08-01T22:00:50;7.65;;;3.10;;
54875;SDS011;40764;48.472;8.166;2022-08-01T22:06:54;3.55;;;2.80;;
54875;SDS011;40764;48.472;8.166;2022-08-01T22:12:56;9.95;;;2.90;;
54875;SDS011;40764;48.472;8.166;2022-08-01T22:18:57;4.73;;;2.80;;
54875;SDS011;40764;48.472;8.166;2022-08-01T22:25:00;5.68;;;2.85;;
54875;SDS011;40764;48.472;8.166;2022-08-01T22:31:00;5.50;;;2.90;;
54875;SDS011;40764;48.472;8.166;2022-08-01T22:37:01;3.77;;;2.90;;
54875;SDS011;40764;48.472;8.166;2022-08-01T22:43:02;3.88;;;2.92;;
54875;SDS011;40764;48.472;8.166;2022-08-01T22:55:35;5.88;;;2.72;;
54875;SDS011;40764;48.472;8.166;2022-08-01T23:01:36;4.38;;;2.92;;
54875;SDS011;40764;48.472;8.166;2022-08-01T23:07:44;3.03;;;2.67;;
54875;SDS011;40764;48.472;8.166;2022-08-01T23:13:51;3.45;;;2.70;;
54875;SDS011;40764;48.472;8.166;2022-08-01T23:19:53;5.47;;;2.47;;
54875;SDS011;40764;48.472;8.166;2022-08-01T23:25:56;5.30;;;3.90;;
54875;SDS011;40764;48.472;8.166;2022-08-01T23:31:57;6.07;;;3.53;;
54875;SDS011;40764;48.472;8.166;2022-08-01T23:37:58;6.35;;;3.25;;
54875;SDS011;40764;48.472;8.166;2022-08-01T23:43:59;3.08;;;2.58;;
54875;SDS011;40764;48.472;8.166;2022-08-01T23:49:59;3.45;;;2.60;;
54875;SDS011;40764;48.472;8.166;2022-08-01T23:56:00;5.25;;;2.50;;
